Terminal Aerodrome Forecast
Issued by NWS

Home | Current Version | Previous Version | Text Only | Print | Product List | Glossary On
Versions: 1 2 3 4 5 6 7 8 9 10 11 12 13 14 15 16
000
FTUS43 KGLD 211120
TAFMCK
TAF
KMCK 211120Z 2112/2212 VRB03KT P6SM FEW040 SCT250
     FM211800 20017G27KT P6SM FEW070 SCT200
     FM212300 15008KT P6SM BKN045
     FM220500 34006KT P6SM SCT200
     FM220800 01008KT P6SM BKN070
     FM221100 02006KT P6SM BKN015=

USA.gov is the U.S. government's official web portal to all federal, state and local government web resources and services.